Time,TemperatureF,DewpointF,PressureIn,WindDirection,WindDirectionDegrees,WindSpeedMPH,WindSpeedGustMPH,Humidity,HourlyPrecipIn,Conditions,Clouds,dailyrainin,SoftwareType,DateUTC
2013-05-03 00:07:00,44.9,39.0,30.51,ENE,71,2.0,8.0,81,0.00,,,0.00,weatherlink.com 1.10,2013-05-03 04:07:00,
2013-05-03 00:22:00,45.1,39.0,30.51,ENE,68,5.0,7.0,80,0.00,,,0.00,weatherlink.com 1.10,2013-05-03 04:22:00,
2013-05-03 00:37:00,45.4,40.0,30.51,East,80,3.0,8.0,80,0.00,,,0.00,weatherlink.com 1.10,2013-05-03 04:37:00,
2013-05-03 00:52:00,45.2,40.0,30.51,ENE,70,4.0,8.0,81,0.00,,,0.00,weatherlink.com 1.10,2013-05-03 04:52:00,
2013-05-03 01:07:00,44.6,39.0,30.50,NE,56,1.0,5.0,82,0.00,,,0.00,weatherlink.com 1.10,2013-05-03 05:07:00,
2013-05-03 01:23:00,43.5,39.0,30.50,NE,37,0.0,1.0,83,0.00,,,0.00,weatherlink.com 1.10,2013-05-03 05:23:00,
2013-05-03 01:38:00,42.9,38.0,30.50,NE,45,1.0,1.0,84,0.00,,,0.00,weatherlink.com 1.10,2013-05-03 05:38:00,
2013-05-03 01:53:00,42.2,39.0,30.50,NE,47,0.0,1.0,87,0.00,,,0.00,weatherlink.com 1.10,2013-05-03 05:53:00,
2013-05-03 02:08:00,41.6,38.0,30.50,NE,55,1.0,1.0,88,0.00,,,0.00,weatherlink.com 1.10,2013-05-03 06:08:00,
2013-05-03 02:23:00,40.4,38.0,30.50,NE,53,0.0,1.0,90,0.00,,,0.00,weatherlink.com 1.10,2013-05-03 06:23:00,
2013-05-03 02:38:00,40.0,38.0,30.50,ENE,57,0.0,1.0,91,0.00,,,0.00,weatherlink.com 1.10,2013-05-03 06:38:00,
2013-05-03 02:53:00,39.5,37.0,30.49,ENE,57,1.0,1.0,92,0.00,,,0.00,weatherlink.com 1.10,2013-05-03 06:53:00,
2013-05-03 03:08:00,38.9,37.0,30.50,ENE,62,1.0,1.0,92,0.00,,,0.00,weatherlink.com 1.10,2013-05-03 07:08:00,
2013-05-03 03:23:00,38.9,37.0,30.50,ENE,61,2.0,2.0,94,0.00,,,0.00,weatherlink.com 1.10,2013-05-03 07:23:00,
2013-05-03 03:38:00,39.0,38.0,30.50,NE,55,1.0,2.0,94,0.00,,,0.00,weatherlink.com 1.10,2013-05-03 07:38:00,
2013-05-03 03:53:00,39.1,37.0,30.50,NE,51,0.0,1.0,93,0.00,,,0.00,weatherlink.com 1.10,2013-05-03 07:53:00,
2013-05-03 04:08:00,39.2,37.0,30.50,NE,53,0.0,1.0,93,0.00,,,0.00,weatherlink.com 1.10,2013-05-03 08:08:00,
2013-05-03 04:23:00,38.9,37.0,30.50,ENE,58,2.0,2.0,93,0.00,,,0.00,weatherlink.com 1.10,2013-05-03 08:23:00,
2013-05-03 04:38:00,38.3,37.0,30.50,ENE,60,2.0,2.0,94,0.00,,,0.00,weatherlink.com 1.10,2013-05-03 08:38:00,
2013-05-03 04:53:00,38.8,37.0,30.50,ENE,58,3.0,4.0,94,0.00,,,0.00,weatherlink.com 1.10,2013-05-03 08:53:00,
2013-05-03 05:08:00,39.9,38.0,30.51,NE,39,2.0,3.0,92,0.00,,,0.00,weatherlink.com 1.10,2013-05-03 09:08:00,
2013-05-03 05:23:00,39.5,37.0,30.51,NE,56,0.0,2.0,91,0.00,,,0.00,weatherlink.com 1.10,2013-05-03 09:23:00,
2013-05-03 05:38:00,39.2,37.0,30.51,ENE,60,1.0,2.0,93,0.00,,,0.00,weatherlink.com 1.10,2013-05-03 09:38:00,
2013-05-03 05:53:00,39.6,38.0,30.52,ENE,60,0.0,1.0,93,0.00,,,0.00,weatherlink.com 1.10,2013-05-03 09:53:00,
2013-05-03 06:08:00,41.7,40.0,30.53,ENE,63,1.0,1.0,92,0.00,,,0.00,weatherlink.com 1.10,2013-05-03 10:08:00,
2013-05-03 06:23:00,42.9,40.0,30.52,ENE,58,1.0,2.0,89,0.00,,,0.00,weatherlink.com 1.10,2013-05-03 10:23:00,
2013-05-03 06:38:00,44.0,40.0,30.53,ENE,62,5.0,6.0,84,0.00,,,0.00,weatherlink.com 1.10,2013-05-03 10:38:00,
2013-05-03 06:53:00,44.8,40.0,30.53,ENE,75,5.0,5.0,83,0.00,,,0.00,weatherlink.com 1.10,2013-05-03 10:53:00,
2013-05-03 07:08:00,45.7,40.0,30.54,ENE,78,5.0,7.0,81,0.00,,,0.00,weatherlink.com 1.10,2013-05-03 11:08:00,
2013-05-03 07:23:00,46.5,40.0,30.54,ENE,74,7.0,7.0,79,0.00,,,0.00,weatherlink.com 1.10,2013-05-03 11:23:00,
2013-05-03 07:38:00,46.5,40.0,30.54,East,97,4.0,10.0,78,0.00,,,0.00,weatherlink.com 1.10,2013-05-03 11:38:00,
2013-05-03 07:53:00,46.2,40.0,30.55,ENE,59,6.0,12.0,80,0.00,,,0.00,weatherlink.com 1.10,2013-05-03 11:53:00,
2013-05-03 08:08:00,47.2,41.0,30.54,East,82,4.0,9.0,80,0.00,,,0.00,weatherlink.com 1.10,2013-05-03 12:08:00,
2013-05-03 08:23:00,47.7,41.0,30.54,ESE,113,5.0,9.0,77,0.00,,,0.00,weatherlink.com 1.10,2013-05-03 12:23:00,
2013-05-03 08:38:00,47.7,41.0,30.54,East,95,4.0,10.0,77,0.00,,,0.00,weatherlink.com 1.10,2013-05-03 12:38:00,
2013-05-03 08:53:00,47.3,41.0,30.54,ENE,69,5.0,12.0,78,0.00,,,0.00,weatherlink.com 1.10,2013-05-03 12:53:00,
2013-05-03 09:08:00,47.5,41.0,30.55,SE,138,5.0,11.0,78,0.00,,,0.00,weatherlink.com 1.10,2013-05-03 13:08:00,
2013-05-03 09:23:00,48.5,42.0,30.54,NNE,29,6.0,12.0,77,0.00,,,0.00,weatherlink.com 1.10,2013-05-03 13:23:00,
2013-05-03 09:38:00,49.7,43.0,30.53,ENE,77,3.0,7.0,77,0.00,,,0.00,weatherlink.com 1.10,2013-05-03 13:38:00,
2013-05-03 09:54:00,51.5,43.0,30.52,ENE,61,3.0,10.0,73,0.00,,,0.00,weatherlink.com 1.10,2013-05-03 13:54:00,
2013-05-03 10:09:00,52.0,43.0,30.52,East,79,9.0,9.0,71,0.00,,,0.00,weatherlink.com 1.10,2013-05-03 14:09:00,
2013-05-03 10:24:00,52.9,43.0,30.52,ENE,66,4.0,8.0,70,0.00,,,0.00,weatherlink.com 1.10,2013-05-03 14:24:00,
2013-05-03 10:39:00,53.1,43.0,30.52,East,98,3.0,9.0,69,0.00,,,0.00,weatherlink.com 1.10,2013-05-03 14:39:00,
2013-05-03 10:54:00,53.9,45.0,30.52,SE,126,4.0,6.0,71,0.00,,,0.00,weatherlink.com 1.10,2013-05-03 14:54:00,
2013-05-03 11:09:00,54.7,44.0,30.51,ENE,71,3.0,8.0,68,0.00,,,0.00,weatherlink.com 1.10,2013-05-03 15:09:00,
2013-05-03 11:24:00,55.2,44.0,30.50,SE,139,3.0,7.0,66,0.00,,,0.00,weatherlink.com 1.10,2013-05-03 15:24:00,
2013-05-03 11:39:00,55.2,45.0,30.50,ESE,114,5.0,10.0,68,0.00,,,0.00,weatherlink.com 1.10,2013-05-03 15:39:00,
2013-05-03 11:54:00,55.4,45.0,30.49,SE,145,4.0,10.0,67,0.00,,,0.00,weatherlink.com 1.10,2013-05-03 15:54:00,
2013-05-03 12:09:00,56.5,46.0,30.48,SE,131,2.0,10.0,67,0.00,,,0.00,weatherlink.com 1.10,2013-05-03 16:09:00,
2013-05-03 12:24:00,56.8,45.0,30.47,ESE,109,2.0,8.0,65,0.00,,,0.00,weatherlink.com 1.10,2013-05-03 16:24:00,
2013-05-03 12:39:00,57.6,45.0,30.46,ESE,121,5.0,11.0,63,0.00,,,0.00,weatherlink.com 1.10,2013-05-03 16:39:00,
2013-05-03 12:54:00,57.8,45.0,30.46,SE,145,6.0,9.0,63,0.00,,,0.00,weatherlink.com 1.10,2013-05-03 16:54:00,
2013-05-03 13:09:00,59.8,45.0,30.46,South,187,3.0,6.0,58,0.00,,,0.00,weatherlink.com 1.10,2013-05-03 17:09:00,
2013-05-03 13:24:00,56.6,47.0,30.45,SSE,152,10.0,12.0,70,0.00,,,0.00,weatherlink.com 1.10,2013-05-03 17:24:00,
2013-05-03 13:39:00,55.0,46.0,30.45,SE,145,8.0,12.0,73,0.00,,,0.00,weatherlink.com 1.10,2013-05-03 17:39:00,
2013-05-03 13:54:00,53.6,47.0,30.44,SSE,158,9.0,13.0,78,0.00,,,0.00,weatherlink.com 1.10,2013-05-03 17:54:00,
2013-05-03 14:09:00,54.2,46.0,30.43,SE,139,13.0,14.0,75,0.00,,,0.00,weatherlink.com 1.10,2013-05-03 18:09:00,
2013-05-03 14:24:00,53.8,47.0,30.43,SSE,149,7.0,12.0,79,0.00,,,0.00,weatherlink.com 1.10,2013-05-03 18:24:00,
2013-05-03 14:39:00,53.2,47.0,30.42,SSE,152,13.0,15.0,78,0.00,,,0.00,weatherlink.com 1.10,2013-05-03 18:39:00,
2013-05-03 14:55:00,51.9,47.0,30.41,SSE,155,9.0,13.0,82,0.00,,,0.00,weatherlink.com 1.10,2013-05-03 18:55:00,
2013-05-03 15:09:00,51.6,47.0,30.41,SSE,151,9.0,14.0,84,0.00,,,0.00,weatherlink.com 1.10,2013-05-03 19:09:00,
2013-05-03 15:25:00,51.0,46.0,30.41,SE,139,11.0,14.0,82,0.00,,,0.00,weatherlink.com 1.10,2013-05-03 19:25:00,
2013-05-03 15:40:00,50.5,45.0,30.40,SE,130,10.0,16.0,81,0.00,,,0.00,weatherlink.com 1.10,2013-05-03 19:40:00,
2013-05-03 15:55:00,50.4,45.0,30.40,SE,142,13.0,15.0,82,0.00,,,0.00,weatherlink.com 1.10,2013-05-03 19:55:00,
2013-05-03 16:10:00,49.7,45.0,30.39,SE,139,11.0,15.0,84,0.00,,,0.00,weatherlink.com 1.10,2013-05-03 20:10:00,
2013-05-03 16:25:00,49.5,45.0,30.40,SE,132,10.0,15.0,83,0.00,,,0.00,weatherlink.com 1.10,2013-05-03 20:25:00,
2013-05-03 16:40:00,49.5,45.0,30.39,SE,141,8.0,14.0,83,0.00,,,0.00,weatherlink.com 1.10,2013-05-03 20:40:00,
2013-05-03 16:55:00,49.5,45.0,30.39,SE,128,9.0,13.0,83,0.00,,,0.00,weatherlink.com 1.10,2013-05-03 20:55:00,
2013-05-03 17:10:00,50.0,45.0,30.39,SE,129,11.0,11.0,82,0.00,,,0.00,weatherlink.com 1.10,2013-05-03 21:10:00,
2013-05-03 17:25:00,49.4,44.0,30.39,SE,139,9.0,12.0,83,0.00,,,0.00,weatherlink.com 1.10,2013-05-03 21:25:00,
2013-05-03 17:40:00,49.3,44.0,30.39,SE,125,11.0,11.0,83,0.00,,,0.00,weatherlink.com 1.10,2013-05-03 21:40:00,
2013-05-03 17:55:00,49.0,44.0,30.38,SE,124,11.0,11.0,83,0.00,,,0.00,weatherlink.com 1.10,2013-05-03 21:55:00,
2013-05-03 18:10:00,49.1,44.0,30.39,SE,130,7.0,9.0,81,0.00,,,0.00,weatherlink.com 1.10,2013-05-03 22:10:00,
2013-05-03 18:25:00,49.1,44.0,30.38,SSE,148,6.0,9.0,82,0.00,,,0.00,weatherlink.com 1.10,2013-05-03 22:25:00,
2013-05-03 18:40:00,49.1,44.0,30.39,SE,138,7.0,8.0,83,0.00,,,0.00,weatherlink.com 1.10,2013-05-03 22:40:00,
2013-05-03 18:55:00,49.0,44.0,30.38,SE,144,5.0,7.0,83,0.00,,,0.00,weatherlink.com 1.10,2013-05-03 22:55:00,
2013-05-03 19:25:00,48.4,44.0,30.38,SE,134,5.0,8.0,84,0.00,,,0.00,weatherlink.com 1.10,2013-05-03 23:25:00,
2013-05-03 19:40:00,48.5,44.0,30.38,SE,139,3.0,6.0,84,0.00,,,0.00,weatherlink.com 1.10,2013-05-03 23:40:00,
2013-05-03 19:55:00,48.1,43.0,30.38,South,172,0.0,1.0,82,0.00,,,0.00,weatherlink.com 1.10,2013-05-03 23:55:00,
2013-05-03 20:10:00,47.2,42.0,30.38,South,172,0.0,0.0,83,0.00,,,0.00,weatherlink.com 1.10,2013-05-04 00:10:00,
2013-05-03 20:25:00,46.9,43.0,30.38,South,172,0.0,0.0,85,0.00,,,0.00,weatherlink.com 1.10,2013-05-04 00:25:00,
2013-05-03 20:40:00,46.2,43.0,30.38,South,173,0.0,1.0,88,0.00,,,0.00,weatherlink.com 1.10,2013-05-04 00:40:00,
2013-05-03 20:55:00,45.4,42.0,30.39,South,191,0.0,1.0,89,0.00,,,0.00,weatherlink.com 1.10,2013-05-04 00:55:00,
2013-05-03 21:10:00,45.7,43.0,30.39,SW,218,0.0,1.0,90,0.00,,,0.00,weatherlink.com 1.10,2013-05-04 01:10:00,
2013-05-03 21:25:00,45.4,42.0,30.40,SSW,205,0.0,1.0,89,0.00,,,0.00,weatherlink.com 1.10,2013-05-04 01:25:00,
2013-05-03 21:40:00,45.3,42.0,30.40,NNE,15,0.0,-999.0,89,-99.99,,,0.00,weatherlink.com 1.10,2013-05-04 01:40:00,
2013-05-03 21:55:00,45.0,42.0,30.40,NNE,15,0.0,1.0,89,0.00,,,0.00,weatherlink.com 1.10,2013-05-04 01:55:00,
2013-05-03 22:10:00,44.2,42.0,30.40,NNE,13,0.0,1.0,90,0.00,,,0.00,weatherlink.com 1.10,2013-05-04 02:10:00,
2013-05-03 22:25:00,43.6,42.0,30.40,NNE,13,0.0,1.0,92,0.00,,,0.00,weatherlink.com 1.10,2013-05-04 02:25:00,
2013-05-03 22:40:00,43.3,42.0,30.40,NNE,15,0.0,2.0,93,0.00,,,0.00,weatherlink.com 1.10,2013-05-04 02:40:00,
2013-05-03 22:55:00,42.7,41.0,30.40,NNE,15,0.0,0.0,93,0.00,,,0.00,weatherlink.com 1.10,2013-05-04 02:55:00,
2013-05-03 23:10:00,42.1,40.0,30.39,NNE,15,0.0,0.0,93,0.00,,,0.00,weatherlink.com 1.10,2013-05-04 03:10:00,
2013-05-03 23:25:00,41.4,40.0,30.39,NNE,15,0.0,0.0,93,0.00,,,0.00,weatherlink.com 1.10,2013-05-04 03:25:00,
2013-05-03 23:40:00,41.3,40.0,30.39,NNE,13,0.0,1.0,94,0.00,,,0.00,weatherlink.com 1.10,2013-05-04 03:40:00,
2013-05-03 23:55:00,41.0,39.0,30.39,NNE,13,0.0,1.0,94,0.00,,,0.00,weatherlink.com 1.10,2013-05-04 03:55:00,